Time;durP1;ratioP1;P1;durP2;ratioP2;P2;SDS_P1;SDS_P2;PMS_P1;PMS_P2;Temp;Humidity;BMP_temperature;BMP_pressure;BME280_temperature;BME280_humidity;BME280_pressure;Samples;Min_cycle;Max_cycle;Signal;HPM_P1;HPM_P2
2021/05/18 13:01:45;;;;;;;0.60;0.20;;;;;;;17.17;45.93;100110.41;5022741;28;20127;-81
2021/05/18 13:04:13;;;;;;;1.85;0.30;;;;;;;17.15;46.09;100113.22;5013350;28;20056;-80
2021/05/18 13:06:49;;;;;;;1.27;0.47;;;;;;;17.41;45.78;100118.31;5012636;28;20548;-80
2021/05/18 13:09:30;;;;;;;0.63;0.32;;;;;;;17.94;44.75;100110.50;5025812;28;20034;-80
2021/05/18 13:12:11;;;;;;;0.77;0.20;;;;;;;18.25;44.02;100107.00;5024003;28;20057;-80
2021/05/18 13:14:57;;;;;;;0.25;0.25;;;;;;;18.44;43.50;100108.97;5006913;28;20061;-81
2021/05/18 13:17:28;;;;;;;0.45;0.20;;;;;;;18.62;44.22;100109.28;5000005;28;20077;-80
2021/05/18 13:20:11;;;;;;;0.50;0.20;;;;;;;18.48;43.57;100105.91;5003670;28;20050;-82
2021/05/18 13:22:41;;;;;;;0.10;0.10;;;;;;;18.43;43.48;100102.75;5020858;28;20109;-82
2021/05/18 13:27:51;;;;;;;;;;;;;;;18.35;42.71;100096.34;5025139;28;20042;-80
2021/05/18 13:30:19;;;;;;;1.45;0.40;;;;;;;18.38;43.86;100096.94;5032988;28;19987;-81
2021/05/18 13:32:56;;;;;;;0.40;0.30;;;;;;;18.40;42.69;100080.72;5016551;28;20060;-80
2021/05/18 13:35:26;;;;;;;0.40;0.30;;;;;;;18.50;43.41;100087.00;5024910;28;20092;-79
2021/05/18 13:37:53;;;;;;;0.30;0.30;;;;;;;18.48;43.73;100094.31;5010268;28;20054;-79
2021/05/18 13:40:20;;;;;;;0.13;0.13;;;;;;;18.37;43.19;100081.84;5024416;28;20061;-80
2021/05/18 13:42:51;;;;;;;0.45;0.30;;;;;;;18.39;43.71;100074.50;5029847;28;20061;-80
2021/05/18 13:45:21;;;;;;;0.57;0.30;;;;;;;18.53;43.50;100084.91;5009840;28;20140;-81
2021/05/18 13:47:52;;;;;;;0.45;0.30;;;;;;;18.65;43.24;100085.72;5030502;28;20109;-80
2021/05/18 13:50:19;;;;;;;1.60;1.00;;;;;;;18.73;41.63;100080.53;5018382;28;20102;-79
2021/05/18 13:52:46;;;;;;;0.40;0.40;;;;;;;18.36;41.85;100082.81;5015641;28;20057;-80
2021/05/18 13:55:13;;;;;;;0.35;0.30;;;;;;;18.02;42.60;100084.75;5010504;28;20069;-80
2021/05/18 13:57:39;;;;;;;0.63;0.30;;;;;;;17.70;43.64;100090.09;5031404;28;20021;-79
2021/05/18 14:00:10;;;;;;;0.50;0.50;;;;;;;17.41;44.10;100091.56;5038856;28;20050;-79
2021/05/18 14:02:41;;;;;;;0.65;0.50;;;;;;;17.09;45.83;100100.31;5027504;28;20041;-80
2021/05/18 14:05:11;;;;;;;0.30;0.30;;;;;;;16.84;46.97;100108.56;5011916;28;20042;-81
2021/05/18 14:10:17;;;;;;;0.40;0.20;;;;;;;16.36;51.08;100113.13;5023770;28;19910;-81
2021/05/18 14:12:43;;;;;;;1.92;0.35;;;;;;;16.20;55.96;100113.41;5015996;28;20086;-80
2021/05/18 14:15:12;;;;;;;0.43;0.35;;;;;;;16.10;57.49;100131.06;5014940;28;20132;-79
2021/05/18 14:17:38;;;;;;;0.30;0.30;;;;;;;16.07;58.42;100132.16;5010069;28;20146;-81
2021/05/18 14:20:06;;;;;;;0.30;0.30;;;;;;;16.21;59.03;100132.97;5025174;28;20521;-81
2021/05/18 14:22:35;;;;;;;1.95;0.35;;;;;;;16.29;56.89;100128.75;5026246;28;20101;-79
2021/05/18 14:25:06;;;;;;;0.30;0.30;;;;;;;16.37;56.89;100120.19;5007422;28;20108;-81
2021/05/18 14:27:38;;;;;;;1.42;0.40;;;;;;;16.37;54.36;100129.00;5023603;28;20053;-83
2021/05/18 14:30:10;;;;;;;0.30;0.30;;;;;;;16.27;53.25;100128.00;5028676;28;20362;-80
2021/05/18 14:32:38;;;;;;;0.65;0.30;;;;;;;16.18;54.86;100130.53;5026715;28;20046;-80
2021/05/18 14:35:09;;;;;;;0.20;0.20;;;;;;;16.01;53.20;100118.41;5023673;28;20050;-79
2021/05/18 14:37:38;;;;;;;0.52;0.20;;;;;;;15.85;53.92;100129.38;5027800;28;20046;-79
2021/05/18 14:40:28;;;;;;;1.85;0.52;;;;;;;15.77;54.54;100137.91;5008789;28;20041;-82
2021/05/18 14:43:02;;;;;;;1.67;0.30;;;;;;;15.60;54.17;100119.59;5007233;28;20161;-80
2021/05/18 14:45:36;;;;;;;0.98;0.32;;;;;;;15.42;54.60;100120.91;5027527;28;20484;-80
2021/05/18 14:56:07;;;;;;;0.63;0.40;;;;;;;15.19;56.55;100106.53;5027359;28;20048;-80
2021/05/18 14:58:35;;;;;;;0.55;0.20;;;;;;;15.08;56.50;100096.63;5013376;28;20077;-81
2021/05/18 15:01:03;;;;;;;0.32;0.32;;;;;;;15.09;56.98;100109.00;5013375;28;20076;-80
2021/05/18 15:03:34;;;;;;;0.20;0.20;;;;;;;15.12;58.32;100115.91;5030276;28;20041;-80
2021/05/18 15:06:01;;;;;;;0.57;0.40;;;;;;;15.20;58.23;100120.72;5015621;28;20050;-81
2021/05/18 15:08:28;;;;;;;0.95;0.43;;;;;;;15.46;57.60;100117.03;5011787;28;20034;-80
2021/05/18 15:11:04;;;;;;;0.85;0.43;;;;;;;15.80;57.98;100118.16;4999287;28;20109;-80
2021/05/18 15:13:33;;;;;;;0.60;0.40;;;;;;;16.16;55.22;100114.59;4997670;28;20062;-81
2021/05/18 15:16:07;;;;;;;1.45;0.70;;;;;;;16.43;53.55;100114.34;5022586;28;20114;-81
2021/05/18 15:18:35;;;;;;;1.05;0.35;;;;;;;16.69;53.21;100115.06;5017086;28;20057;-83
2021/05/18 15:21:03;;;;;;;0.88;0.40;;;;;;;16.88;53.47;100117.16;5037198;28;20057;-83
2021/05/18 15:23:42;;;;;;;0.45;0.35;;;;;;;16.88;51.61;100103.81;5013312;28;20048;-82
2021/05/18 15:26:09;;;;;;;0.43;0.30;;;;;;;16.92;52.90;100103.44;5031174;28;20034;-83
2021/05/18 15:28:35;;;;;;;0.93;0.50;;;;;;;17.02;52.37;100108.94;5019865;28;20062;-83
2021/05/18 15:31:02;;;;;;;0.85;0.50;;;;;;;16.94;54.05;100106.88;5020540;28;20042;-82
2021/05/18 15:33:29;;;;;;;1.83;0.40;;;;;;;16.92;52.66;100105.28;5017359;28;20038;-80
2021/05/18 15:35:56;;;;;;;3.00;0.30;;;;;;;17.10;51.10;100107.38;5037002;28;20037;-82
2021/05/18 15:38:27;;;;;;;0.98;0.38;;;;;;;17.32;50.90;100108.34;5015423;28;20026;-83
2021/05/18 15:40:54;;;;;;;0.50;0.30;;;;;;;17.50;49.06;100097.00;5037982;28;20030;-82
2021/05/18 15:43:23;;;;;;;0.35;0.20;;;;;;;17.68;47.63;100105.44;5019673;28;20056;-82
2021/05/18 15:45:50;;;;;;;0.28;0.20;;;;;;;17.73;46.14;100097.03;5033527;28;20061;-82
2021/05/18 15:48:19;;;;;;;0.35;0.25;;;;;;;17.85;46.93;100094.19;5017104;28;20095;-79
2021/05/18 15:58:26;;;;;;;1.75;0.70;;;;;;;18.09;47.43;100093.16;5033398;28;20428;-80
2021/05/18 16:01:09;;;;;;;1.60;0.30;;;;;;;17.96;46.59;100085.25;5033138;28;20034;-81
2021/05/18 16:03:39;;;;;;;0.85;0.40;;;;;;;18.01;46.81;100092.94;5019009;28;20097;-79
2021/05/18 16:06:07;;;;;;;0.30;0.30;;;;;;;18.01;46.85;100096.47;5020203;28;20054;-79
2021/05/18 16:11:05;;;;;;;0.98;0.35;;;;;;;17.58;48.96;100103.59;5022524;28;20026;-79
2021/05/18 16:13:32;;;;;;;1.65;0.40;;;;;;;17.22;48.93;100092.16;5030937;28;20066;-79
2021/05/18 16:16:06;;;;;;;0.20;0.20;;;;;;;16.94;50.05;100093.50;5033346;28;20064;-80
2021/05/18 16:18:33;;;;;;;0.60;0.20;;;;;;;16.63;51.46;100092.34;5017910;28;20057;-80
2021/05/18 16:21:00;;;;;;;0.52;0.50;;;;;;;16.48;51.88;100097.00;5015308;28;20042;-79
2021/05/18 16:23:27;;;;;;;0.57;0.50;;;;;;;16.28;52.69;100089.63;5035341;28;20493;-80
2021/05/18 16:25:57;;;;;;;0.60;0.40;;;;;;;16.18;52.42;100091.31;5013143;28;20046;-81
2021/05/18 16:28:24;;;;;;;0.30;0.30;;;;;;;16.09;52.13;100092.81;5010874;28;20106;-79
2021/05/18 16:30:54;;;;;;;0.30;0.20;;;;;;;16.18;52.29;100087.78;5029793;28;20046;-80
2021/05/18 16:33:28;;;;;;;0.30;0.30;;;;;;;16.21;52.36;100092.91;5006729;28;20053;-80
2021/05/18 16:35:57;;;;;;;0.70;0.40;;;;;;;16.11;53.17;100098.06;5019469;28;20069;-81
2021/05/18 16:38:24;;;;;;;0.20;0.20;;;;;;;15.96;53.27;100093.84;5018127;28;20034;-80
2021/05/18 16:40:54;;;;;;;0.68;0.50;;;;;;;15.81;53.65;100092.31;5017898;28;20085;-79
2021/05/18 16:43:22;;;;;;;0.43;0.40;;;;;;;15.68;54.13;100101.22;5012285;28;20038;-78
2021/05/18 16:45:54;;;;;;;1.75;0.70;;;;;;;15.59;54.60;100099.22;5028970;28;20050;-81
2021/05/18 16:48:28;;;;;;;0.50;0.40;;;;;;;15.49;55.07;100098.16;5018614;28;20057;-81
2021/05/18 16:50:57;;;;;;;0.38;0.30;;;;;;;15.48;54.91;100098.25;5015139;28;20089;-79
2021/05/18 16:53:24;;;;;;;0.63;0.50;;;;;;;15.51;55.68;100098.03;5034595;28;20034;-80
2021/05/18 16:55:54;;;;;;;1.15;0.50;;;;;;;15.55;55.66;100096.88;5033010;28;20130;-79
2021/05/18 16:58:22;;;;;;;1.25;0.60;;;;;;;15.63;55.50;100103.38;5018595;28;20062;-81
2021/05/18 17:00:48;;;;;;;0.47;0.47;;;;;;;15.72;54.88;100102.72;5028625;28;20050;-81
2021/05/18 17:03:16;;;;;;;0.88;0.60;;;;;;;15.81;55.50;100105.66;5018149;28;20078;-80
2021/05/18 17:05:43;;;;;;;0.75;0.60;;;;;;;15.78;55.25;100107.59;5035214;28;20038;-79
2021/05/18 17:08:11;;;;;;;0.80;0.80;;;;;;;15.87;55.38;100106.09;5016603;28;20114;-79
2021/05/18 17:10:40;;;;;;;0.55;0.52;;;;;;;15.92;54.83;100114.59;5032551;28;20050;-79
2021/05/18 17:13:09;;;;;;;1.80;0.40;;;;;;;15.95;54.70;100118.84;5036082;28;20034;-80
2021/05/18 17:15:36;;;;;;;0.65;0.45;;;;;;;15.99;55.89;100128.34;5007962;28;20109;-81
2021/05/18 17:18:04;;;;;;;0.35;0.30;;;;;;;15.90;54.82;100126.38;5020396;28;20054;-82
2021/05/18 17:20:35;;;;;;;0.70;0.50;;;;;;;15.80;55.44;100126.16;5019100;28;20068;-81
2021/05/18 17:23:03;;;;;;;0.60;0.50;;;;;;;15.72;55.71;100128.56;5016973;28;20042;-80
2021/05/18 17:25:30;;;;;;;0.52;0.50;;;;;;;15.69;56.29;100139.44;5018292;28;20038;-82
2021/05/18 17:27:57;;;;;;;0.77;0.50;;;;;;;15.72;56.75;100139.25;5016053;28;20062;-81
2021/05/18 17:30:26;;;;;;;0.40;0.40;;;;;;;15.77;56.39;100131.72;5020453;28;20076;-81
2021/05/18 17:32:54;;;;;;;0.80;0.80;;;;;;;15.79;56.18;100136.00;5032743;28;20042;-82
2021/05/18 17:35:23;;;;;;;0.52;0.52;;;;;;;15.73;56.56;100139.13;5033004;28;20045;-82
2021/05/18 17:37:50;;;;;;;0.70;0.70;;;;;;;15.67;55.88;100134.22;5030642;28;20087;-83
2021/05/18 17:40:18;;;;;;;0.65;0.55;;;;;;;15.61;56.66;100134.66;5012760;28;20042;-82
2021/05/18 17:42:44;;;;;;;1.08;0.60;;;;;;;15.56;56.88;100134.16;5016650;28;20037;-81
2021/05/18 17:45:15;;;;;;;1.23;0.65;;;;;;;15.52;56.75;100135.28;5011824;28;20096;-80
2021/05/18 17:47:44;;;;;;;1.95;0.60;;;;;;;15.40;56.71;100134.34;5014880;28;20045;-81
2021/05/18 17:50:13;;;;;;;1.90;0.63;;;;;;;15.34;56.22;100140.13;5028747;28;20247;-81
2021/05/18 17:52:41;;;;;;;2.47;0.80;;;;;;;15.22;57.29;100138.31;5016278;28;20045;-80
2021/05/18 17:55:11;;;;;;;1.83;0.60;;;;;;;15.16;58.13;100143.22;5013036;28;20037;-80
2021/05/18 17:57:42;;;;;;;1.17;0.68;;;;;;;15.08;59.07;100149.94;5007123;28;20045;-81
2021/05/18 18:00:10;;;;;;;1.70;0.90;;;;;;;15.13;59.29;100165.63;5006986;28;20042;-77
2021/05/18 18:02:37;;;;;;;1.77;0.73;;;;;;;15.00;58.20;100164.75;5031092;28;20045;-81
2021/05/18 18:05:05;;;;;;;1.35;1.23;;;;;;;14.86;59.56;100168.38;5030964;28;20034;-81
2021/05/18 18:07:32;;;;;;;4.30;1.13;;;;;;;14.71;58.75;100183.59;5007221;28;20038;-82
2021/05/18 18:10:02;;;;;;;2.58;0.70;;;;;;;14.50;58.53;100187.69;5033908;28;20026;-81
2021/05/18 18:12:29;;;;;;;1.90;0.70;;;;;;;14.26;58.58;100190.13;5018247;28;20042;-81
2021/05/18 18:15:05;;;;;;;2.00;0.75;;;;;;;14.04;59.36;100189.81;4999345;28;20057;-79
2021/05/18 18:17:32;;;;;;;1.15;0.70;;;;;;;13.91;60.57;100200.41;5026091;28;20046;-80
2021/05/18 18:19:58;;;;;;;3.05;1.15;;;;;;;13.74;60.49;100195.28;5013481;28;20026;-81
2021/05/18 18:22:25;;;;;;;1.50;0.95;;;;;;;13.53;60.91;100183.34;5029804;28;20060;-80
2021/05/18 18:24:53;;;;;;;0.98;0.75;;;;;;;13.48;62.27;100194.28;4995917;28;20126;-79
2021/05/18 18:27:22;;;;;;;1.08;0.98;;;;;;;13.50;61.95;100197.69;5015597;28;20110;-79
2021/05/18 18:29:49;;;;;;;1.25;0.80;;;;;;;13.50;62.47;100192.38;5032141;28;20113;-79
2021/05/18 18:32:16;;;;;;;0.80;0.60;;;;;;;13.56;62.42;100189.31;5014299;28;20034;-80
2021/05/18 18:34:43;;;;;;;1.67;1.10;;;;;;;13.55;62.32;100190.25;4998339;28;20053;-81
2021/05/18 18:37:11;;;;;;;2.33;1.48;;;;;;;13.53;63.06;100192.19;5008199;28;20108;-79
2021/05/18 18:39:39;;;;;;;2.25;1.08;;;;;;;13.56;63.26;100196.44;5012731;28;20033;-79
2021/05/18 18:42:07;;;;;;;1.15;0.90;;;;;;;13.51;63.09;100202.06;4995074;28;20046;-80
2021/05/18 18:44:36;;;;;;;1.45;1.10;;;;;;;13.49;62.69;100201.31;5010109;28;20042;-80
2021/05/18 18:47:12;;;;;;;1.27;1.13;;;;;;;13.46;62.50;100200.63;5012154;28;20041;-80
2021/05/18 18:49:42;;;;;;;;;;;;;;;13.34;62.47;100213.75;5014876;28;20056;-80
2021/05/18 18:52:19;;;;;;;1.35;0.90;;;;;;;13.25;62.74;100216.09;5012111;28;19932;-80
2021/05/18 18:54:46;;;;;;;1.27;0.90;;;;;;;13.18;63.08;100222.75;5007830;28;20053;-81
2021/05/18 18:57:13;;;;;;;0.90;0.90;;;;;;;13.09;63.47;100209.94;5008528;28;20080;-80
2021/05/18 18:59:40;;;;;;;2.03;1.30;;;;;;;13.00;63.07;100214.03;5006719;28;20064;-79
2021/05/18 19:02:08;;;;;;;1.33;1.13;;;;;;;12.98;63.50;100229.22;5027339;28;20049;-80
2021/05/18 19:04:39;;;;;;;1.77;1.10;;;;;;;12.97;64.40;100225.69;5020369;28;20413;-80
2021/05/18 19:09:55;;;;;;;1.10;1.00;;;;;;;13.04;63.19;100233.31;5024908;28;20109;-80
2021/05/18 19:12:44;;;;;;;3.28;1.63;;;;;;;12.99;63.72;100238.91;5024201;28;20117;-80
2021/05/18 19:15:13;;;;;;;5.03;2.35;;;;;;;12.95;64.09;100246.19;5004054;28;20069;-80
2021/05/18 19:17:42;;;;;;;4.03;1.90;;;;;;;12.90;63.73;100248.28;5007244;28;20041;-81
2021/05/18 19:20:11;;;;;;;3.88;1.95;;;;;;;12.88;64.31;100242.19;5005657;28;20050;-80
2021/05/18 19:22:38;;;;;;;3.30;1.63;;;;;;;12.88;64.06;100246.66;5005305;28;20144;-80
2021/05/18 19:25:09;;;;;;;1.92;1.58;;;;;;;12.90;60.19;100245.63;5006498;28;20540;-80
2021/05/18 19:27:43;;;;;;;2.22;1.60;;;;;;;12.94;59.13;100251.59;5007581;28;20053;-82
2021/05/18 19:30:18;;;;;;;3.65;1.70;;;;;;;12.92;58.67;100249.03;5006511;28;20062;-82
2021/05/18 19:32:47;;;;;;;2.25;1.58;;;;;;;12.83;58.28;100243.41;5006382;28;20046;-82
2021/05/18 19:35:23;;;;;;;2.28;1.83;;;;;;;12.86;58.62;100257.38;5019192;28;20054;-81
2021/05/18 19:49:15;;;;;;;2.40;1.73;;;;;;;12.80;57.94;100256.88;5031621;28;20036;-80
2021/05/18 19:51:45;;;;;;;2.28;1.58;;;;;;;12.80;57.93;100252.41;5019848;28;20046;-83
2021/05/18 19:54:18;;;;;;;2.85;1.60;;;;;;;12.81;57.55;100251.47;5007174;28;20053;-79
2021/05/18 19:57:05;;;;;;;1.75;1.65;;;;;;;12.77;58.36;100247.25;5010214;28;20057;-81
2021/05/18 20:16:59;;;;;;;3.05;1.92;;;;;;;12.22;61.49;100284.94;5033580;28;20049;-80
2021/05/18 20:22:16;;;;;;;2.47;2.08;;;;;;;12.02;62.11;100269.25;5034296;28;20049;-81
2021/05/18 20:24:49;;;;;;;5.40;1.92;;;;;;;12.10;62.15;100296.25;5009266;28;20057;-83
2021/05/18 20:27:30;;;;;;;3.50;1.70;;;;;;;12.03;62.18;100281.59;5019917;28;20042;-82
2021/05/18 20:30:13;;;;;;;2.58;1.83;;;;;;;12.10;62.53;100303.34;5028530;28;20077;-83
2021/05/18 20:32:42;;;;;;;2.85;1.92;;;;;;;12.01;62.60;100274.66;5007328;28;20749;-82
2021/05/18 20:35:34;;;;;;;3.97;2.95;;;;;;;12.06;62.00;100285.88;5010379;28;20042;-82
2021/05/18 20:40:57;;;;;;;2.05;1.85;;;;;;;12.28;62.33;100315.59;5025975;28;20100;-83
2021/05/18 20:43:28;;;;;;;2.00;1.80;;;;;;;12.29;62.31;100318.16;5027537;28;20053;-82
2021/05/18 20:45:59;;;;;;;2.53;1.98;;;;;;;12.26;62.29;100304.22;5004628;28;20046;-81
2021/05/18 20:48:39;;;;;;;2.40;1.88;;;;;;;12.30;61.95;100308.41;5005406;28;20050;-82
2021/05/18 20:51:08;;;;;;;3.17;2.78;;;;;;;12.43;62.43;100313.91;5004873;28;20056;-82
2021/05/18 20:53:37;;;;;;;2.58;1.55;;;;;;;12.45;62.65;100322.63;5010664;28;20102;-83
2021/05/18 20:56:06;;;;;;;1.83;1.60;;;;;;;12.40;64.18;100322.91;4999629;28;20067;-81
2021/05/18 20:58:33;;;;;;;2.83;1.70;;;;;;;12.41;64.13;100324.63;4988212;28;20113;-81
2021/05/18 21:01:01;;;;;;;2.50;1.88;;;;;;;12.39;64.39;100320.34;5006623;28;20042;-81
2021/05/18 21:03:33;;;;;;;2.03;1.90;;;;;;;12.37;64.79;100320.41;5004151;28;20114;-81
2021/05/18 21:06:04;;;;;;;2.25;2.03;;;;;;;12.30;65.25;100319.88;4999905;28;20140;-81
2021/05/18 21:16:53;;;;;;;1.70;1.60;;;;;;;12.20;66.82;100333.75;5023828;28;20038;-81
2021/05/18 21:19:20;;;;;;;1.92;1.83;;;;;;;12.20;67.07;100328.44;5004776;28;20050;-83
2021/05/18 21:21:52;;;;;;;3.35;1.92;;;;;;;12.18;66.82;100323.22;5002993;28;20052;-80
2021/05/18 21:24:21;;;;;;;5.53;3.67;;;;;;;12.13;67.14;100319.94;5002144;28;20046;-80
2021/05/18 21:26:48;;;;;;;2.72;2.53;;;;;;;12.14;67.80;100326.13;5020820;28;20050;-79
2021/05/18 21:29:16;;;;;;;3.15;2.20;;;;;;;12.16;67.99;100325.09;5004423;28;20061;-83
2021/05/18 21:31:50;;;;;;;2.92;2.28;;;;;;;12.13;67.68;100327.91;5022361;28;20046;-83
2021/05/18 21:34:19;;;;;;;3.60;2.38;;;;;;;12.08;67.12;100329.97;5020771;28;20053;-80
2021/05/18 21:36:46;;;;;;;2.40;2.20;;;;;;;12.08;67.60;100337.94;4989836;28;20053;-81
2021/05/18 21:39:18;;;;;;;2.38;2.17;;;;;;;12.09;68.44;100338.78;5015747;28;20113;-82
2021/05/18 21:41:57;;;;;;;2.75;2.20;;;;;;;12.08;68.60;100350.34;5024050;28;20073;-80
2021/05/18 21:44:24;;;;;;;4.15;2.88;;;;;;;12.10;68.86;100352.00;5033166;28;20050;-83
2021/05/18 21:46:51;;;;;;;3.35;2.72;;;;;;;12.11;67.85;100344.88;5032196;28;20058;-82
2021/05/18 21:49:18;;;;;;;3.45;1.92;;;;;;;12.10;66.90;100338.72;5012118;28;20073;-80
2021/05/18 21:51:45;;;;;;;2.05;1.85;;;;;;;12.08;65.74;100347.69;5023303;28;20212;-81
2021/05/18 21:54:12;;;;;;;1.63;1.50;;;;;;;12.05;65.08;100345.19;5006738;28;20101;-80
2021/05/18 21:56:41;;;;;;;3.03;1.60;;;;;;;11.98;65.42;100341.16;5007961;28;20072;-80
2021/05/18 21:59:09;;;;;;;1.50;1.40;;;;;;;11.98;65.55;100349.09;4994255;28;20061;-79
2021/05/18 22:01:38;;;;;;;1.90;1.70;;;;;;;11.90;66.14;100345.09;5002349;28;20121;-81
2021/05/18 22:04:06;;;;;;;2.05;1.85;;;;;;;11.89;66.35;100348.69;4988430;28;20054;-81
2021/05/18 22:06:32;;;;;;;2.15;1.42;;;;;;;11.93;65.47;100346.72;5022652;28;20065;-81
2021/05/18 22:15:32;;;;;;;1.98;1.60;;;;;;;11.92;64.98;100345.88;4996514;28;20129;-82
2021/05/18 22:26:14;;;;;;;3.15;1.73;;;;;;;12.01;64.97;100352.47;5029032;28;20077;-82
2021/05/18 22:28:44;;;;;;;2.63;1.80;;;;;;;11.90;65.61;100361.00;5031997;28;20032;-81
2021/05/18 22:31:13;;;;;;;5.10;1.67;;;;;;;11.80;66.47;100350.97;5001398;28;20105;-81
2021/05/18 22:33:41;;;;;;;2.30;1.83;;;;;;;11.79;66.35;100357.22;5010055;28;20069;-82
2021/05/18 22:36:08;;;;;;;4.57;1.50;;;;;;;11.74;66.04;100351.25;5020972;28;20049;-81
2021/05/18 22:38:36;;;;;;;2.33;1.80;;;;;;;11.72;66.18;100353.97;5018642;28;20062;-81
2021/05/18 22:41:03;;;;;;;2.22;1.80;;;;;;;11.71;66.40;100351.41;5034911;28;20041;-81
2021/05/18 22:43:31;;;;;;;4.15;1.60;;;;;;;11.72;65.87;100353.97;5018010;28;20420;-81
2021/05/18 22:45:59;;;;;;;2.33;1.70;;;;;;;11.69;65.62;100345.31;5034277;28;20034;-81
2021/05/18 22:48:26;;;;;;;2.38;1.60;;;;;;;11.69;65.80;100348.81;5010760;28;20107;-83
2021/05/18 22:50:52;;;;;;;1.63;1.52;;;;;;;11.70;65.19;100355.00;5005342;28;20146;-82
2021/05/18 22:53:19;;;;;;;2.03;1.60;;;;;;;11.64;65.55;100352.69;5021080;28;20109;-82
2021/05/18 22:55:52;;;;;;;2.38;1.50;;;;;;;11.69;64.94;100361.22;5034200;28;20045;-81
2021/05/18 22:58:20;;;;;;;1.73;1.60;;;;;;;11.75;64.70;100363.56;5029745;28;20162;-80
2021/05/18 23:00:49;;;;;;;2.30;1.60;;;;;;;11.70;65.11;100362.94;5012125;28;20133;-80
2021/05/18 23:03:21;;;;;;;2.35;1.70;;;;;;;11.72;65.12;100361.06;5023243;28;20046;-82
2021/05/18 23:05:49;;;;;;;1.65;1.50;;;;;;;11.72;64.71;100364.59;5031403;28;20053;-84
2021/05/18 23:08:17;;;;;;;1.65;1.50;;;;;;;11.69;64.91;100364.75;4988536;28;20049;-80
2021/05/18 23:10:47;;;;;;;1.70;1.50;;;;;;;11.69;65.24;100369.19;5008093;28;20042;-83
2021/05/18 23:13:14;;;;;;;2.78;1.70;;;;;;;11.68;64.99;100370.13;5000324;28;20046;-82
2021/05/18 23:15:45;;;;;;;1.92;1.73;;;;;;;11.73;65.09;100368.97;5014239;28;20064;-82
2021/05/18 23:18:20;;;;;;;1.85;1.63;;;;;;;11.73;65.13;100368.09;4998235;28;20065;-83
2021/05/18 23:20:51;;;;;;;1.58;1.48;;;;;;;11.69;65.55;100374.50;4998228;28;20104;-81
2021/05/18 23:23:18;;;;;;;2.75;1.60;;;;;;;11.67;66.03;100373.72;5015554;28;20054;-82
2021/05/18 23:25:44;;;;;;;2.00;1.60;;;;;;;11.65;66.28;100372.97;5016105;28;20053;-81
2021/05/18 23:28:14;;;;;;;2.03;1.60;;;;;;;11.53;65.97;100366.47;4998811;28;20053;-81
2021/05/18 23:30:41;;;;;;;1.47;1.37;;;;;;;11.53;66.04;100366.47;4978981;28;20604;-81
2021/05/18 23:33:10;;;;;;;1.67;1.58;;;;;;;11.51;65.78;100368.34;4995836;28;20141;-81
2021/05/18 23:35:37;;;;;;;2.38;1.80;;;;;;;11.49;66.76;100368.41;4994736;28;20042;-81
2021/05/18 23:38:04;;;;;;;3.00;1.85;;;;;;;11.52;66.79;100373.56;4995479;28;20115;-81
2021/05/18 23:40:32;;;;;;;3.80;1.80;;;;;;;11.52;66.64;100367.41;5010241;28;20046;-81
2021/05/18 23:42:58;;;;;;;2.63;1.52;;;;;;;11.52;66.06;100367.41;4982644;28;20056;-80
2021/05/18 23:45:26;;;;;;;2.08;1.75;;;;;;;11.49;66.69;100363.09;4998169;28;20038;-80
2021/05/18 23:47:54;;;;;;;2.30;1.88;;;;;;;11.51;66.54;100361.25;4998966;28;20045;-80
2021/05/18 23:50:21;;;;;;;2.97;1.52;;;;;;;11.52;66.45;100362.97;5018119;28;20069;-80
2021/05/18 23:52:48;;;;;;;2.47;1.60;;;;;;;11.49;66.39;100360.47;5018620;28;20461;-80
2021/05/18 23:55:15;;;;;;;2.10;1.90;;;;;;;11.49;67.08;100365.75;5020669;28;20046;-80
2021/05/18 23:57:42;;;;;;;3.85;2.05;;;;;;;11.46;67.46;100365.09;5024384;28;20045;-80
